createdAt,value
2022-09-09T00:00:49.728Z,10.37
2022-09-09T00:03:22.038Z,10.80
2022-09-09T00:06:00.245Z,11.00
2022-09-09T00:08:40.167Z,9.93
2022-09-09T00:11:13.627Z,10.63
2022-09-09T00:13:48.708Z,10.03
2022-09-09T00:16:21.240Z,10.47
2022-09-09T00:18:57.695Z,10.37
2022-09-09T00:21:33.487Z,10.83
2022-09-09T00:24:06.896Z,10.73
2022-09-09T00:26:42.084Z,10.10
2022-09-09T00:29:22.315Z,10.23
2022-09-09T00:31:50.260Z,10.50
2022-09-09T00:34:23.619Z,11.27
2022-09-09T00:36:54.467Z,10.87
2022-09-09T00:39:29.914Z,11.33
2022-09-09T00:42:14.847Z,12.83
2022-09-09T00:45:01.121Z,11.93
2022-09-09T00:47:47.734Z,11.77
2022-09-09T00:50:31.634Z,12.03
2022-09-09T00:53:13.343Z,11.33
2022-09-09T00:55:50.552Z,13.63
2022-09-09T00:58:19.842Z,11.70
2022-09-09T01:00:55.154Z,12.53
2022-09-09T01:03:35.708Z,12.87
2022-09-09T01:06:07.645Z,12.13
2022-09-09T01:09:00.968Z,11.13
2022-09-09T01:11:39.345Z,11.33
2022-09-09T01:14:27.078Z,11.70
2022-09-09T01:16:58.566Z,12.17
2022-09-09T01:19:35.835Z,11.87
2022-09-09T01:22:12.636Z,11.67
2022-09-09T01:24:46.412Z,11.63
2022-09-09T01:27:19.148Z,11.17
2022-09-09T01:29:47.765Z,12.20
2022-09-09T01:32:40.999Z,11.13
2022-09-09T01:35:12.899Z,11.20
2022-09-09T01:37:40.893Z,11.00
2022-09-09T01:40:10.310Z,11.73
2022-09-09T01:42:39.672Z,11.83
2022-09-09T01:45:08.936Z,12.53
2022-09-09T01:47:37.747Z,12.47
2022-09-09T01:50:06.491Z,12.50
2022-09-09T01:52:38.221Z,13.20
2022-09-09T01:55:07.408Z,12.63
2022-09-09T01:57:43.983Z,13.40
2022-09-09T02:00:14.565Z,13.40
2022-09-09T02:02:50.869Z,12.53
2022-09-09T02:05:30.720Z,12.10
2022-09-09T02:08:05.312Z,13.17
2022-09-09T02:10:38.149Z,14.03
2022-09-09T02:13:11.975Z,13.53
2022-09-09T02:15:49.389Z,13.00
2022-09-09T02:18:24.458Z,14.50
2022-09-09T02:20:53.904Z,13.70
2022-09-09T02:23:22.987Z,13.03
2022-09-09T02:25:53.979Z,13.40
2022-09-09T02:28:26.439Z,13.17
2022-09-09T02:30:56.284Z,13.83
2022-09-09T02:33:29.172Z,14.13
2022-09-09T02:36:02.868Z,13.67
2022-09-09T02:38:36.167Z,14.37
2022-09-09T02:41:05.117Z,15.43
2022-09-09T02:43:35.855Z,14.33
2022-09-09T02:46:15.110Z,14.40
2022-09-09T02:48:52.647Z,14.57
2022-09-09T02:51:26.680Z,14.60
2022-09-09T02:54:01.972Z,15.40
2022-09-09T02:56:34.808Z,15.37
2022-09-09T02:59:07.037Z,15.83
2022-09-09T03:01:36.673Z,15.73
2022-09-09T03:04:06.105Z,15.57
2022-09-09T03:06:33.964Z,15.43
2022-09-09T03:09:03.541Z,15.80
2022-09-09T03:11:31.370Z,15.77
2022-09-09T03:13:59.244Z,16.00
2022-09-09T03:16:28.590Z,16.07
2022-09-09T03:18:56.484Z,19.10
2022-09-09T03:21:24.356Z,20.30
2022-09-09T03:23:52.242Z,18.60
2022-09-09T03:26:20.423Z,17.63
2022-09-09T03:28:48.309Z,16.23
2022-09-09T03:31:16.268Z,17.77
2022-09-09T03:33:45.569Z,17.73
2022-09-09T03:36:13.632Z,17.57
2022-09-09T03:38:41.587Z,16.97
2022-09-09T03:41:09.892Z,16.53
2022-09-09T03:43:38.646Z,16.63
2022-09-09T03:46:06.985Z,18.00
2022-09-09T03:48:34.981Z,18.23
2022-09-09T03:51:04.249Z,17.60
2022-09-09T03:53:32.903Z,18.23
2022-09-09T03:56:01.777Z,17.93
2022-09-09T03:58:30.443Z,17.23
2022-09-09T04:00:59.719Z,17.77
2022-09-09T04:03:28.644Z,17.23
2022-09-09T04:05:57.709Z,19.83
2022-09-09T04:08:27.897Z,18.27
2022-09-09T04:10:59.375Z,17.77
2022-09-09T04:13:28.166Z,17.30
2022-09-09T04:15:58.073Z,18.30
2022-09-09T04:18:27.006Z,18.20
2022-09-09T04:20:55.663Z,17.70
2022-09-09T04:23:25.115Z,21.10
2022-09-09T04:25:55.937Z,18.03
2022-09-09T04:28:25.960Z,19.40
2022-09-09T04:30:54.397Z,17.87
2022-09-09T04:33:22.603Z,17.67
2022-09-09T04:35:54.721Z,17.57
2022-09-09T04:38:23.652Z,17.17
2022-09-09T04:40:54.899Z,17.93
2022-09-09T04:43:27.036Z,17.13
2022-09-09T04:45:55.103Z,17.10
2022-09-09T04:48:23.494Z,16.03
2022-09-09T04:50:59.145Z,12.87
2022-09-09T04:53:27.465Z,14.87
2022-09-09T04:56:02.768Z,14.13
2022-09-09T04:58:32.049Z,14.33
2022-09-09T05:01:06.481Z,14.43
2022-09-09T05:03:34.641Z,16.93
2022-09-09T05:06:07.539Z,13.70
2022-09-09T05:08:35.554Z,13.40
2022-09-09T05:11:04.117Z,13.38
2022-09-09T05:13:34.087Z,13.07
2022-09-09T05:16:03.813Z,16.02
2022-09-09T05:18:31.764Z,13.98
2022-09-09T05:21:01.800Z,13.10
2022-09-09T05:23:29.691Z,19.67
2022-09-09T05:25:58.601Z,13.98
2022-09-09T05:28:27.560Z,14.18
2022-09-09T05:31:01.575Z,13.93
2022-09-09T05:33:29.814Z,16.77
2022-09-09T05:35:59.917Z,14.43
2022-09-09T05:38:28.860Z,14.88
2022-09-09T05:40:58.104Z,17.92
2022-09-09T05:43:26.570Z,13.38
2022-09-09T05:46:06.996Z,16.02
2022-09-09T05:48:36.339Z,14.23
2022-09-09T05:51:04.584Z,19.02
2022-09-09T05:53:35.176Z,15.63
2022-09-09T05:56:05.472Z,15.02
2022-09-09T05:58:33.999Z,18.92
2022-09-09T06:01:09.222Z,10.57
2022-09-09T06:03:37.771Z,10.60
2022-09-09T06:06:07.596Z,11.82
2022-09-09T06:08:38.155Z,12.07
2022-09-09T06:11:07.475Z,14.77
2022-09-09T06:13:36.217Z,11.10
2022-09-09T06:16:06.241Z,7.00
2022-09-09T06:18:34.184Z,8.27
2022-09-09T06:21:05.305Z,7.13
2022-09-09T06:23:33.403Z,10.88
2022-09-09T06:26:07.064Z,7.60
2022-09-09T06:28:35.345Z,8.43
2022-09-09T06:31:05.259Z,8.93
2022-09-09T06:33:36.041Z,8.10
2022-09-09T06:36:05.249Z,7.88
2022-09-09T06:38:33.191Z,7.57
2022-09-09T06:41:02.960Z,7.97
2022-09-09T06:43:31.488Z,6.95
2022-09-09T06:46:01.357Z,9.52
2022-09-09T06:48:30.013Z,7.32
2022-09-09T06:51:08.014Z,7.90
2022-09-09T06:53:37.577Z,8.95
2022-09-09T06:56:20.531Z,7.22
2022-09-09T06:58:49.889Z,7.20
2022-09-09T07:01:19.818Z,6.93
2022-09-09T07:03:51.159Z,6.78
2022-09-09T07:06:22.892Z,7.22
2022-09-09T07:08:56.427Z,7.75
2022-09-09T07:11:27.910Z,7.80
2022-09-09T07:13:56.583Z,8.70
2022-09-09T07:16:25.832Z,7.00
2022-09-09T07:18:58.637Z,7.15
2022-09-09T07:21:29.087Z,7.55
2022-09-09T07:23:57.113Z,6.97
2022-09-09T07:26:27.508Z,6.65
2022-09-09T07:28:56.723Z,6.75
2022-09-09T07:31:27.194Z,7.22
2022-09-09T07:33:55.961Z,6.90
2022-09-09T07:36:26.443Z,7.80
2022-09-09T07:39:00.276Z,9.15
2022-09-09T07:41:31.265Z,8.60
2022-09-09T07:43:59.387Z,7.55
2022-09-09T07:46:29.107Z,7.60
2022-09-09T07:48:59.159Z,7.32
2022-09-09T07:51:29.665Z,7.55
2022-09-09T07:54:01.066Z,7.60
2022-09-09T07:56:30.380Z,9.20
2022-09-09T07:58:59.713Z,11.98
2022-09-09T08:01:30.901Z,7.05
2022-09-09T08:04:02.078Z,9.90
2022-09-09T08:06:31.711Z,7.43
2022-09-09T08:09:01.079Z,7.38
2022-09-09T08:11:35.348Z,12.30
2022-09-09T08:14:06.212Z,7.22
2022-09-09T08:16:37.492Z,8.73
2022-09-09T08:19:06.600Z,9.32
2022-09-09T08:21:34.700Z,9.73
2022-09-09T08:24:05.954Z,7.90
2022-09-09T08:26:36.455Z,7.47
2022-09-09T08:29:06.232Z,9.15
2022-09-09T08:31:35.938Z,8.27
2022-09-09T08:34:05.560Z,9.18
2022-09-09T08:36:35.457Z,7.75
2022-09-09T08:39:06.717Z,8.52
2022-09-09T08:41:49.123Z,7.85
2022-09-09T08:44:29.362Z,9.82
2022-09-09T08:47:07.433Z,7.50
2022-09-09T08:50:01.302Z,7.22
2022-09-09T08:52:32.005Z,7.78
2022-09-09T08:55:23.915Z,7.57
2022-09-09T08:57:54.897Z,7.90
2022-09-09T09:00:23.352Z,7.90
2022-09-09T09:03:00.821Z,7.15
2022-09-09T09:05:35.063Z,8.30
2022-09-09T09:08:14.660Z,7.57
2022-09-09T09:10:49.815Z,8.20
2022-09-09T09:13:22.113Z,11.93
2022-09-09T09:15:57.741Z,7.75
2022-09-09T09:18:25.661Z,8.25
2022-09-09T09:21:04.972Z,9.27
2022-09-09T09:23:43.209Z,9.07
2022-09-09T09:26:13.229Z,7.95
2022-09-09T09:28:42.306Z,9.40
2022-09-09T09:31:12.862Z,8.38
2022-09-09T09:33:48.667Z,10.40
2022-09-09T09:36:17.416Z,8.15
2022-09-09T09:41:46.647Z,8.27
2022-09-09T09:44:25.822Z,8.57
2022-09-09T09:46:54.635Z,11.18
2022-09-09T09:49:22.527Z,10.48
2022-09-09T09:51:50.421Z,8.70
2022-09-09T09:54:24.063Z,8.27
2022-09-09T09:56:53.891Z,11.13
2022-09-09T09:59:38.814Z,8.45
2022-09-09T10:02:25.785Z,8.40
2022-09-09T10:05:03.673Z,8.98
2022-09-09T10:07:32.144Z,7.82
2022-09-09T10:10:00.247Z,10.35
2022-09-09T10:12:45.209Z,8.75
2022-09-09T10:15:31.914Z,10.43
2022-09-09T10:18:08.131Z,12.32
2022-09-09T10:20:47.496Z,12.68
2022-09-09T10:23:31.999Z,18.85
2022-09-09T10:26:22.153Z,13.55
2022-09-09T10:29:07.910Z,10.60
2022-09-09T10:31:46.435Z,9.48
2022-09-09T10:34:29.786Z,10.80
2022-09-09T10:37:00.594Z,10.32
2022-09-09T10:39:40.693Z,13.07
2022-09-09T10:42:14.778Z,9.73
2022-09-09T10:45:01.552Z,11.25
2022-09-09T10:47:45.209Z,12.68
2022-09-09T10:51:07.152Z,11.30
2022-09-09T10:53:47.882Z,14.50
2022-09-09T10:56:19.633Z,10.40
2022-09-09T10:58:53.804Z,9.68
2022-09-09T11:01:26.081Z,11.60
2022-09-09T11:03:59.363Z,9.82
2022-09-09T11:06:33.755Z,11.80
2022-09-09T11:09:04.577Z,12.68
2022-09-09T11:11:38.682Z,11.45
2022-09-09T11:14:13.959Z,16.45
2022-09-09T11:16:49.158Z,12.43
2022-09-09T11:19:22.347Z,11.73
2022-09-09T11:21:53.002Z,12.40
2022-09-09T11:24:27.832Z,14.15
2022-09-09T11:26:59.653Z,12.63
2022-09-09T11:29:53.560Z,11.18
2022-09-09T11:32:48.909Z,13.00
2022-09-09T11:35:29.899Z,13.20
2022-09-09T11:38:19.166Z,10.82
2022-09-09T11:40:48.624Z,11.55
2022-09-09T11:43:26.375Z,14.30
2022-09-09T11:46:00.525Z,14.20
2022-09-09T11:48:35.987Z,14.43
2022-09-09T11:51:10.119Z,14.65
2022-09-09T11:53:51.003Z,11.55
2022-09-09T11:56:29.108Z,13.48
2022-09-09T11:59:00.417Z,13.52
2022-09-09T12:01:32.440Z,13.48
2022-09-09T12:04:30.164Z,12.20
2022-09-09T12:07:01.451Z,12.85
2022-09-09T12:09:47.058Z,11.88
2022-09-09T12:12:29.193Z,15.10
2022-09-09T12:15:03.741Z,13.23
2022-09-09T12:17:35.375Z,11.90
2022-09-09T12:20:10.959Z,11.88
2022-09-09T12:22:51.052Z,14.15
2022-09-09T12:25:29.532Z,10.60
2022-09-09T12:28:07.626Z,11.55
2022-09-09T12:30:44.341Z,11.98
2022-09-09T12:33:14.954Z,12.75
2022-09-09T12:35:48.794Z,12.93
2022-09-09T12:38:24.621Z,13.48
2022-09-09T12:40:58.414Z,15.80
2022-09-09T12:43:28.397Z,11.98
2022-09-09T12:46:01.474Z,12.07
2022-09-09T12:48:37.765Z,11.75
2022-09-09T12:51:16.460Z,14.50
2022-09-09T12:53:46.704Z,11.20
2022-09-09T12:56:21.760Z,11.38
2022-09-09T12:58:53.538Z,12.70
2022-09-09T13:01:25.769Z,14.13
2022-09-09T13:03:54.587Z,11.68
2022-09-09T13:06:29.699Z,13.85
2022-09-09T13:08:59.573Z,13.07
2022-09-09T13:11:32.914Z,13.30
2022-09-09T13:14:01.489Z,11.70
2022-09-09T13:16:32.938Z,16.73
2022-09-09T13:19:02.770Z,16.27
2022-09-09T13:21:36.881Z,12.82
2022-09-09T13:24:08.574Z,12.23
2022-09-09T13:26:36.994Z,12.95
2022-09-09T13:29:19.899Z,11.52
2022-09-09T13:31:48.265Z,11.52
2022-09-09T13:34:28.360Z,13.77
2022-09-09T13:37:03.397Z,14.80
2022-09-09T13:39:31.704Z,14.32
2022-09-09T13:41:59.891Z,10.80
2022-09-09T13:44:31.119Z,11.07
2022-09-09T13:47:08.029Z,13.90
2022-09-09T13:49:38.094Z,12.07
2022-09-09T13:52:11.885Z,14.95
2022-09-09T13:54:40.258Z,12.07
2022-09-09T13:57:18.238Z,13.02
2022-09-09T14:00:05.090Z,12.68
2022-09-09T14:02:34.701Z,12.82
2022-09-09T14:05:02.747Z,13.18
2022-09-09T14:07:33.062Z,14.73
2022-09-09T14:10:01.389Z,11.70
2022-09-09T14:12:29.497Z,13.82
2022-09-09T14:14:57.339Z,12.13
2022-09-09T14:17:26.126Z,12.20
2022-09-09T14:19:54.069Z,14.15
2022-09-09T14:22:22.297Z,11.27
2022-09-09T14:24:52.004Z,10.82
2022-09-09T14:27:20.860Z,12.70
2022-09-09T14:29:48.729Z,13.43
2022-09-09T14:32:16.636Z,10.43
2022-09-09T14:34:44.514Z,12.85
2022-09-09T14:37:12.516Z,14.65
2022-09-09T14:39:40.452Z,11.75
2022-09-09T14:42:12.061Z,11.27
2022-09-09T14:44:40.254Z,12.80
2022-09-09T14:47:09.035Z,12.07
2022-09-09T14:49:37.380Z,10.73
2022-09-09T14:52:06.037Z,14.55
2022-09-09T14:54:34.341Z,11.70
2022-09-09T14:57:02.208Z,11.88
2022-09-09T14:59:31.458Z,13.82
2022-09-09T15:01:59.566Z,16.48
2022-09-09T15:04:28.376Z,11.60
2022-09-09T15:06:56.224Z,14.25
2022-09-09T15:09:24.184Z,10.45
2022-09-09T15:11:52.053Z,10.10
2022-09-09T15:14:23.925Z,11.18
2022-09-09T15:16:55.078Z,11.88
2022-09-09T15:19:23.003Z,12.30
2022-09-09T15:21:50.995Z,11.43
2022-09-09T15:24:18.851Z,10.52
2022-09-09T15:26:46.704Z,9.85
2022-09-09T15:29:14.813Z,10.80
2022-09-09T15:31:42.752Z,11.27
2022-09-09T15:34:12.347Z,12.02
2022-09-09T15:36:42.290Z,10.32
2022-09-09T15:39:13.711Z,10.02
2022-09-09T15:41:42.088Z,10.15
2022-09-09T15:44:12.076Z,13.55
2022-09-09T15:46:41.832Z,10.00
2022-09-09T15:49:12.614Z,9.95
2022-09-09T15:51:43.853Z,10.23
2022-09-09T15:54:14.018Z,12.40
2022-09-09T15:56:42.736Z,9.27
2022-09-09T15:59:10.960Z,10.52
2022-09-09T16:01:40.452Z,10.05
2022-09-09T16:04:08.457Z,9.88
2022-09-09T16:06:37.855Z,11.75
2022-09-09T16:09:08.187Z,10.70
2022-09-09T16:11:38.404Z,13.77
2022-09-09T16:14:07.516Z,12.95
2022-09-09T16:16:36.971Z,13.57
2022-09-09T16:19:07.506Z,11.95
2022-09-09T16:21:40.657Z,10.90
2022-09-09T16:24:10.868Z,9.98
2022-09-09T16:26:41.830Z,10.63
2022-09-09T16:29:10.432Z,17.98
2022-09-09T16:31:38.914Z,13.82
2022-09-09T16:34:06.871Z,14.13
2022-09-09T16:36:38.036Z,12.95
2022-09-09T16:39:08.047Z,18.48
2022-09-09T16:41:35.932Z,16.85
2022-09-09T16:44:05.637Z,14.75
2022-09-09T16:46:36.525Z,16.77
2022-09-09T16:49:07.132Z,15.68
2022-09-09T16:51:38.005Z,15.68
2022-09-09T16:54:08.650Z,14.32
2022-09-09T16:56:39.073Z,17.13
2022-09-09T16:59:09.066Z,14.55
2022-09-09T17:01:39.397Z,22.30
2022-09-09T17:04:09.352Z,18.15
2022-09-09T17:06:39.469Z,16.73
2022-09-09T17:09:09.397Z,17.85
2022-09-09T17:11:37.869Z,21.30
2022-09-09T17:14:06.795Z,19.52
2022-09-09T17:16:36.278Z,21.23
2022-09-09T17:19:05.773Z,16.15
2022-09-09T17:21:34.491Z,18.13
2022-09-09T17:24:04.243Z,18.45
2022-09-09T17:26:35.151Z,19.58
2022-09-09T17:29:04.512Z,14.40
2022-09-09T17:31:33.663Z,13.48
2022-09-09T17:34:02.389Z,26.58
2022-09-09T17:36:33.268Z,13.23
2022-09-09T17:39:03.584Z,20.75
2022-09-09T17:41:33.187Z,18.05
2022-09-09T17:44:02.039Z,13.43
2022-09-09T17:46:32.581Z,14.85
2022-09-09T17:49:02.139Z,18.75
2022-09-09T17:51:32.119Z,12.10
2022-09-09T17:54:01.980Z,11.23
2022-09-09T17:56:33.287Z,11.05
2022-09-09T17:59:02.612Z,14.70
2022-09-09T18:01:32.347Z,14.60
2022-09-09T18:04:02.160Z,10.52
2022-09-09T18:06:33.830Z,12.77
2022-09-09T18:09:03.626Z,10.35
2022-09-09T18:11:38.679Z,12.40
2022-09-09T18:14:07.228Z,15.02
2022-09-09T18:16:36.406Z,13.68
2022-09-09T18:19:06.381Z,13.60
2022-09-09T18:21:35.378Z,15.48
2022-09-09T18:24:05.859Z,15.00
2022-09-09T18:26:36.589Z,11.50
2022-09-09T18:29:07.802Z,16.70
2022-09-09T18:31:37.809Z,17.85
2022-09-09T18:34:07.903Z,13.68
2022-09-09T18:36:38.588Z,13.65
2022-09-09T18:39:09.500Z,10.73
2022-09-09T18:41:39.995Z,9.82
2022-09-09T18:44:10.304Z,12.45
2022-09-09T18:46:39.926Z,12.00
2022-09-09T18:49:08.746Z,12.93
2022-09-09T18:51:37.197Z,11.90
2022-09-09T18:54:07.913Z,11.70
2022-09-09T18:56:36.982Z,13.98
2022-09-09T18:59:08.190Z,13.23
2022-09-09T19:01:36.711Z,9.10
2022-09-09T19:04:06.171Z,8.63
2022-09-09T19:06:35.745Z,9.23
2022-09-09T19:09:04.051Z,9.10
2022-09-09T19:11:33.321Z,10.35
2022-09-09T19:14:03.409Z,9.13
2022-09-09T19:16:35.728Z,8.43
2022-09-09T19:19:06.277Z,9.73
2022-09-09T19:21:36.619Z,8.48
2022-09-09T19:24:06.702Z,8.27
2022-09-09T19:26:40.532Z,11.05
2022-09-09T19:29:10.174Z,9.80
2022-09-09T19:31:41.514Z,8.88
2022-09-09T19:34:14.483Z,8.25
2022-09-09T19:36:43.219Z,8.52
2022-09-09T19:39:12.507Z,8.32
2022-09-09T19:41:40.455Z,9.55
2022-09-09T19:44:11.983Z,8.60
2022-09-09T19:46:44.645Z,8.63
2022-09-09T19:49:12.778Z,10.38
2022-09-09T19:51:41.334Z,10.48
2022-09-09T19:54:11.171Z,8.70
2022-09-09T19:56:40.541Z,8.15
2022-09-09T19:59:10.699Z,8.23
2022-09-09T20:01:40.890Z,9.25
2022-09-09T20:04:10.406Z,8.63
2022-09-09T20:06:40.631Z,11.85
2022-09-09T20:09:11.949Z,10.05
2022-09-09T20:11:40.172Z,13.82
2022-09-09T20:14:08.657Z,11.15
2022-09-09T20:16:37.344Z,10.75
2022-09-09T20:19:07.430Z,10.55
2022-09-09T20:21:41.029Z,9.05
2022-09-09T20:24:13.833Z,9.25
2022-09-09T20:26:42.116Z,8.38
2022-09-09T20:29:15.923Z,9.05
2022-09-09T20:31:45.628Z,9.43
2022-09-09T20:34:15.603Z,8.65
2022-09-09T20:36:45.371Z,9.30
2022-09-09T20:39:15.109Z,23.23
2022-09-09T20:41:45.448Z,10.73
2022-09-09T20:44:16.107Z,15.35
2022-09-09T20:46:48.118Z,11.02
2022-09-09T20:49:17.508Z,12.27
2022-09-09T20:51:47.661Z,15.57
2022-09-09T20:54:18.869Z,13.20
2022-09-09T20:56:48.161Z,11.90
2022-09-09T20:59:18.156Z,10.93
2022-09-09T21:01:47.906Z,10.80
2022-09-09T21:04:17.188Z,13.20
2022-09-09T21:06:46.774Z,14.95
2022-09-09T21:09:15.113Z,12.25
2022-09-09T21:11:43.130Z,11.50
2022-09-09T21:14:11.993Z,15.93
2022-09-09T21:16:39.997Z,17.40
2022-09-09T21:19:07.996Z,14.98
2022-09-09T21:21:36.238Z,17.92
2022-09-09T21:24:06.352Z,12.55
2022-09-09T21:26:35.499Z,16.50
2022-09-09T21:29:03.397Z,18.15
2022-09-09T21:31:31.545Z,18.90
2022-09-09T21:33:59.917Z,17.70
2022-09-09T21:36:28.583Z,16.90
2022-09-09T21:38:59.289Z,16.02
2022-09-09T21:41:28.786Z,17.27
2022-09-09T21:43:57.078Z,15.25
2022-09-09T21:46:26.739Z,17.23
2022-09-09T21:48:56.496Z,18.33
2022-09-09T21:51:24.852Z,18.25
2022-09-09T21:53:56.416Z,14.32
2022-09-09T21:56:24.725Z,14.50
2022-09-09T21:58:57.867Z,14.52
2022-09-09T22:01:26.568Z,14.52
2022-09-09T22:03:54.533Z,16.35
2022-09-09T22:06:22.380Z,14.13
2022-09-09T22:08:50.246Z,17.65
2022-09-09T22:11:19.761Z,15.63
2022-09-09T22:13:48.411Z,12.57
2022-09-09T22:16:20.733Z,14.32
2022-09-09T22:18:56.752Z,13.88
2022-09-09T22:21:26.111Z,13.00
2022-09-09T22:23:54.694Z,16.40
2022-09-09T22:26:23.224Z,17.30
2022-09-09T22:28:51.794Z,14.55
2022-09-09T22:31:22.847Z,12.80
2022-09-09T22:33:51.841Z,13.55
2022-09-09T22:36:20.883Z,15.82
2022-09-09T22:38:49.001Z,13.50
2022-09-09T22:41:17.116Z,15.95
2022-09-09T22:43:45.569Z,13.77
2022-09-09T22:46:14.031Z,17.73
2022-09-09T22:48:43.268Z,12.88
2022-09-09T22:51:13.539Z,13.25
2022-09-09T22:53:42.390Z,12.95
2022-09-09T22:56:14.733Z,13.00
2022-09-09T22:58:42.690Z,13.35
2022-09-09T23:01:15.444Z,13.30
2022-09-09T23:03:46.548Z,12.20
2022-09-09T23:06:22.004Z,12.40
2022-09-09T23:08:52.182Z,12.40
2022-09-09T23:11:20.177Z,12.13
2022-09-09T23:13:52.480Z,12.02
2022-09-09T23:16:22.191Z,12.82
2022-09-09T23:18:52.201Z,13.35
2022-09-09T23:21:20.816Z,13.40
2022-09-09T23:23:49.076Z,12.73
2022-09-09T23:26:20.918Z,12.70
2022-09-09T23:28:51.885Z,11.95
2022-09-09T23:31:22.036Z,14.15
2022-09-09T23:33:53.276Z,12.70
2022-09-09T23:36:23.220Z,12.80
2022-09-09T23:38:51.454Z,14.55
2022-09-09T23:41:21.139Z,13.13
2022-09-09T23:43:49.580Z,12.93
2022-09-09T23:46:20.289Z,12.43
2022-09-09T23:48:50.687Z,12.60
2022-09-09T23:51:23.840Z,12.95
2022-09-09T23:53:53.625Z,14.50
2022-09-09T23:56:22.012Z,12.80
2022-09-09T23:58:50.368Z,13.50
